createdAt,value
2023-04-18T00:08:10.596Z,12.83
2023-04-18T00:23:14.223Z,12.81
2023-04-18T00:38:16.234Z,12.12
2023-04-18T00:53:18.186Z,11.50
2023-04-18T01:08:21.896Z,11.76
2023-04-18T01:23:23.847Z,11.14
2023-04-18T01:38:25.846Z,10.79
2023-04-18T01:53:27.793Z,10.74
2023-04-18T02:08:31.012Z,11.30
2023-04-18T02:23:33.068Z,11.45
2023-04-18T02:38:35.010Z,11.04
2023-04-18T02:53:36.940Z,10.68
2023-04-18T03:08:38.912Z,10.47
2023-04-18T03:23:41.078Z,10.28
2023-04-18T03:38:43.246Z,10.23
2023-04-18T03:53:45.075Z,9.95
2023-04-18T04:08:46.969Z,10.12
2023-04-18T04:23:48.992Z,10.23
2023-04-18T04:38:52.570Z,10.07
2023-04-18T04:53:54.424Z,10.20
2023-04-18T05:08:57.663Z,10.27
2023-04-18T05:23:59.525Z,10.32
2023-04-18T05:39:01.692Z,10.16
2023-04-18T05:54:04.506Z,10.46
2023-04-18T06:09:06.454Z,10.77
2023-04-18T06:24:08.564Z,10.61
2023-04-18T06:39:10.494Z,10.80
2023-04-18T06:54:12.566Z,10.85
2023-04-18T07:09:14.668Z,11.14
2023-04-18T07:24:16.810Z,11.32
2023-04-18T07:39:18.802Z,12.02
2023-04-18T07:54:20.734Z,12.23
2023-04-18T08:09:22.632Z,12.23
2023-04-18T08:24:24.554Z,12.34
2023-04-18T08:39:26.444Z,13.10
2023-04-18T08:54:30.610Z,13.96
2023-04-18T09:09:50.234Z,14.27
2023-04-18T09:24:57.674Z,14.73
2023-04-18T09:39:59.577Z,15.02
2023-04-18T09:55:04.530Z,14.18
2023-04-18T10:10:07.125Z,13.73
2023-04-18T10:25:09.190Z,13.61
2023-04-18T10:40:11.341Z,13.83
2023-04-18T10:55:15.975Z,14.50
2023-04-18T11:10:24.029Z,15.18
2023-04-18T11:25:32.421Z,15.77
2023-04-18T11:40:35.837Z,16.28
2023-04-18T11:55:37.783Z,14.95
2023-04-18T12:10:51.192Z,13.31
2023-04-18T12:26:03.649Z,12.86
2023-04-18T12:41:05.770Z,13.12
2023-04-18T12:56:08.173Z,12.77
2023-04-18T13:11:09.991Z,12.57
2023-04-18T13:26:11.822Z,12.25
2023-04-18T13:41:13.918Z,12.13
2023-04-18T13:56:15.878Z,12.16
2023-04-18T14:11:17.866Z,12.02
2023-04-18T14:26:20.749Z,11.76
2023-04-18T14:41:22.732Z,11.43
2023-04-18T14:56:24.869Z,11.26
2023-04-18T15:11:27.478Z,11.07
2023-04-18T15:26:31.072Z,11.28
2023-04-18T15:41:36.345Z,10.98
2023-04-18T15:56:38.224Z,10.67
2023-04-18T16:11:40.124Z,10.53
2023-04-18T16:26:42.024Z,10.71
2023-04-18T16:41:43.871Z,10.67
2023-04-18T16:56:45.874Z,10.55
2023-04-18T17:11:47.818Z,10.77
2023-04-18T17:26:49.992Z,10.46
2023-04-18T17:41:51.916Z,9.77
2023-04-18T17:56:53.936Z,9.80
2023-04-18T18:11:56.209Z,10.02
2023-04-18T18:26:59.063Z,9.96
2023-04-18T18:42:01.169Z,9.96
2023-04-18T18:57:03.119Z,10.28
2023-04-18T19:12:05.832Z,9.93
2023-04-18T19:27:08.071Z,9.89
2023-04-18T19:42:10.489Z,10.55
2023-04-18T19:57:12.468Z,10.20
2023-04-18T20:12:14.563Z,10.02
2023-04-18T20:27:18.958Z,10.07
2023-04-18T20:42:21.217Z,10.18
2023-04-18T20:57:23.164Z,10.23
2023-04-18T21:12:25.014Z,10.23
2023-04-18T21:27:26.927Z,10.05
2023-04-18T21:42:28.885Z,10.05
2023-04-18T21:57:30.775Z,10.29
2023-04-18T22:12:32.919Z,10.77
2023-04-18T22:27:34.731Z,10.52
2023-04-18T22:42:38.052Z,10.21
2023-04-18T22:57:40.619Z,10.91
2023-04-18T23:12:42.487Z,11.31
2023-04-18T23:27:44.415Z,11.29
2023-04-18T23:42:47.294Z,11.47
2023-04-18T23:57:49.236Z,11.70
